• Join FlightAware (Why Join?)
  • Login
  • US Flag 
03:01PM EDT


 

Airport Tracker/Info


-or-


 

Live Flight TrackerFlight Track Log ✈ N310DE ✈ 10-May-2012 ✈ KSNA - KATL

Flight Track Log - Related Links

Times and Time Zones

All times are in EDT time to prevent confusion due to time zone crossing. See the N310DE flight status page for this flight to view local times or setup timezone preferences in your user account.

Time Position Orientation Groundspeed Altitude Reporting Facility
EDT Latitude Longitude Course Direction KTS MPH feet Rate Location/Type
05:07PM 33.6333 -117.8833 102° East 154 177 2,000  Level Southern California TRACON
05:12PM 33.5742 -117.5497 82° East 298 343 11,100 1,740 Climbing Los Angeles Center
05:13PM 33.5881 -117.4253 87° East 340 391 13,200 2,400 Climbing Los Angeles Center
05:14PM 33.5936 -117.2933 87° East 375 432 15,900 2,580 Climbing Los Angeles Center
05:15PM 33.5992 -117.1561 87° East 393 452 18,400 2,520 Climbing Los Angeles Center
05:16PM 33.6044 -117.0167 89° East 407 468 20,900 2,280 Climbing Los Angeles Center
05:17PM 33.6075 -116.8694 87° East 425 489 23,000 1,980 Climbing Los Angeles Center
05:18PM 33.6144 -116.7075 87° East 437 503 25,000 1,740 Climbing Los Angeles Center
05:19PM 33.6214 -116.5503 88° East 448 516 26,500 1,500 Climbing Los Angeles Center
05:20PM 33.6261 -116.3906 89° East 461 531 28,000 1,500 Climbing Los Angeles Center
05:21PM 33.6286 -116.2308 88° East 472 543 29,500 1,500 Climbing Los Angeles Center
05:22PM 33.6328 -116.0889 85° East 472 543 31,100 1,500 Climbing Los Angeles Center
05:23PM 33.6431 -115.9317 79° East 478 550 32,600 1,500 Climbing Los Angeles Center
05:24PM 33.6717 -115.7467 78° East 493 567 34,200 1,320 Climbing Los Angeles Center
05:25PM 33.6964 -115.6069 81° East 487 560 35,300 1,260 Climbing Los Angeles Center
05:26PM 33.7186 -115.4419 79° East 475 547 36,800 840 Climbing Los Angeles Center
05:27PM 33.7425 -115.2894 81° East 461 531 37,000 60 Climbing Los Angeles Center
05:28PM 33.7622 -115.1392 76° East 466 536 37,000 -60 Level Los Angeles Center
05:29PM 33.7964 -114.9739 81° East 472 543 36,900 -60 Descending Los Angeles Center
05:30PM 33.8178 -114.8186 76° East 472 543 36,900  Level Los Angeles Center
05:31PM 33.8494 -114.6631 79° East 472 543 37,000  Climbing Los Angeles Center
05:34PM 33.9086 -114.2869 82° East 473 544 37,000  Level Albuquerque Center
05:35PM 33.9258 -114.1358 80° East 473 544 37,000  Level Albuquerque Center
05:36PM 33.9458 -113.9997 79° East 467 537 37,000  Level Albuquerque Center
05:37PM 33.9711 -113.8417 79° East 467 537 37,000  Level Albuquerque Center
05:38PM 33.9961 -113.6883 79° East 467 537 37,000  Level Albuquerque Center
05:39PM 34.0211 -113.5322 79° East 462 532 37,000  Level Albuquerque Center
05:40PM 34.0456 -113.3786 80° East 468 539 37,000  Level Albuquerque Center
05:41PM 34.0678 -113.2225 80° East 468 539 37,000  Level Albuquerque Center
05:42PM 34.0928 -113.0511 80° East 468 539 37,000  Level Albuquerque Center
05:43PM 34.1147 -112.8972 78° East 468 539 37,000  Level Albuquerque Center
05:44PM 34.1406 -112.7433 81° East 463 533 37,000  Level Albuquerque Center
05:45PM 34.1622 -112.5842 80° East 468 539 37,000  Level Albuquerque Center
05:46PM 34.1853 -112.4325 81° East 473 544 37,000  Level Albuquerque Center
05:47PM 34.2036 -112.2928 81° East 463 533 37,000  Level Albuquerque Center
05:48PM 34.2244 -112.1408 81° East 463 533 37,000  Level Albuquerque Center
05:49PM 34.2453 -111.9839 81° East 463 533 37,000  Level Albuquerque Center
05:50PM 34.2658 -111.8292 80° East 463 533 37,000  Level Albuquerque Center
05:51PM 34.2881 -111.6772 81° East 463 533 37,000  Level Albuquerque Center
05:52PM 34.3081 -111.5222 81° East 463 533 37,000  Level Albuquerque Center
05:53PM 34.3281 -111.3697 80° East 463 533 37,000  Level Albuquerque Center
05:54PM 34.3494 -111.2225 83° East 458 527 37,000  Level Albuquerque Center
05:55PM 34.3647 -111.0722 78° East 453 521 37,000  Level Albuquerque Center
05:56PM 34.3900 -110.9225 81° East 447 514 37,000  Level Albuquerque Center
05:57PM 34.4092 -110.7722 81° East 447 514 37,000  Level Albuquerque Center
05:58PM 34.4278 -110.6219 82° East 447 514 37,000  Level Albuquerque Center
05:59PM 34.4464 -110.4689 82° East 447 514 37,000  Level Albuquerque Center
06:00PM 34.4653 -110.3033 80° East 447 514 37,000  Level Albuquerque Center
06:01PM 34.4853 -110.1656 82° East 447 514 37,000  Level Albuquerque Center
06:02PM 34.5036 -110.0025 82° East 447 514 37,000  Level Albuquerque Center
06:03PM 34.5214 -109.8542 81° East 447 514 37,000  Level Albuquerque Center
06:04PM 34.5411 -109.7061 83° East 447 514 37,000  Level Albuquerque Center
06:05PM 34.5542 -109.5703 83° East 447 514 37,000  Level Albuquerque Center
06:06PM 34.5694 -109.4142 89° East 447 514 37,000  Level Albuquerque Center
06:07PM 34.5719 -109.2606 80° East 447 514 37,000  Level Albuquerque Center
06:08PM 34.5931 -109.1097 75° East 447 514 37,000  Level Albuquerque Center
06:09PM 34.6264 -108.9614 83° East 447 514 37,000  Level Albuquerque Center
06:10PM 34.6408 -108.8078 83° East 447 514 37,000  Level Albuquerque Center
06:11PM 34.6553 -108.6539 80° East 447 514 37,000  Level Albuquerque Center
06:12PM 34.6756 -108.5078 82° East 447 514 37,000 -420 Level Albuquerque Center
06:13PM 34.6914 -108.3614 86° East 441 507 36,200 -900 Descending Albuquerque Center
06:14PM 34.7008 -108.2125 89° East 441 507 35,300 -900 Descending Albuquerque Center
06:15PM 34.7039 -108.0636 97° East 441 507 34,400 -960 Descending Albuquerque Center
06:16PM 34.6881 -107.9144 99° East 441 507 33,400 -1,140 Descending Albuquerque Center
06:17PM 34.6678 -107.7525 90° East 446 513 32,200 -1,080 Descending Albuquerque Center
06:18PM 34.6681 -107.6036 83° East 446 513 31,300 -900 Descending Albuquerque Center
06:19PM 34.6831 -107.4522 82° East 441 507 30,400 -900 Descending Albuquerque Center
06:20PM 34.6997 -107.3131 83° East 447 514 29,500 -720 Descending Albuquerque Center
06:21PM 34.7161 -107.1489 83° East 447 514 29,000 -300 Descending Albuquerque Center
06:22PM 34.7325 -106.9947 82° East 447 514 29,000  Level Albuquerque Center
06:23PM 34.7508 -106.8431 84° East 453 521 29,000  Level Albuquerque Center
06:24PM 34.7647 -106.6886 81° East 453 521 29,000  Level Albuquerque Center
06:25PM 34.7844 -106.5392 83° East 458 527 29,000  Level Albuquerque Center
06:26PM 34.8000 -106.3822 84° East 458 527 29,000  Level Albuquerque Center
06:27PM 34.8133 -106.2278 81° East 463 533 29,000  Level Albuquerque Center
06:28PM 34.8328 -106.0758 85° East 463 533 29,000  Level Albuquerque Center
06:29PM 34.8433 -105.9211 83° East 458 527 29,000  Level Albuquerque Center
06:30PM 34.8581 -105.7664 83° East 463 533 29,000 -600 Level Albuquerque Center
06:31PM 34.8728 -105.6169 83° East 458 527 27,900 -960 Descending Albuquerque Center
06:32PM 34.8856 -105.4875 84° East 445 512 27,100 -480 Descending Albuquerque Center
06:33PM 34.8975 -105.3378 83° East 437 503 27,000 -60 Descending Albuquerque Center
06:34PM 34.9117 -105.1906 84° East 437 503 27,000  Level Albuquerque Center
06:35PM 34.9236 -105.0383 83° East 437 503 27,000  Level Albuquerque Center
06:36PM 34.9372 -104.8933 84° East 443 510 27,000  Level Albuquerque Center
06:37PM 34.9508 -104.7433 85° East 448 516 27,000  Level Albuquerque Center
06:38PM 34.9622 -104.5961 85° East 440 506 27,000  Level Albuquerque Center
06:39PM 34.9733 -104.4486 84° East 440 506 27,000  Level Albuquerque Center
06:40PM 34.9861 -104.2986 84° East 440 506 27,000  Level Albuquerque Center
06:42PM 35.0128 -103.9731 85° East 445 512 27,000  Level Albuquerque Center
06:43PM 35.0231 -103.8231 84° East 445 512 27,000  Level Albuquerque Center
06:44PM 35.0356 -103.6778 84° East 445 512 27,000  Level Albuquerque Center
06:45PM 35.0475 -103.5278 84° East 445 512 27,000  Level Albuquerque Center
06:46PM 35.0594 -103.3800 85° East 440 506 27,000  Level Albuquerque Center
06:48PM 35.0803 -103.0819 84° East 443 510 27,000  Level Albuquerque Center
06:49PM 35.0917 -102.9367 86° East 443 510 27,000  Level Albuquerque Center
06:50PM 35.1008 -102.7864 85° East 443 510 27,000  Level Albuquerque Center
06:51PM 35.1117 -102.6358 86° East 443 510 27,000  Level Albuquerque Center
06:52PM 35.1203 -102.4881 85° East 443 510 27,000  Level Albuquerque Center
06:53PM 35.1308 -102.3375 85° East 443 510 27,000  Level Albuquerque Center
06:54PM 35.1411 -102.1872 85° East 443 510 27,000  Level Albuquerque Center
06:55PM 35.1511 -102.0367 84° East 443 510 27,000  Level Albuquerque Center
06:56PM 35.1664 -101.8678 87° East 448 516 27,000  Level Albuquerque Center
06:57PM 35.1739 -101.7147 88° East 448 516 27,000  Level Albuquerque Center
06:58PM 35.1792 -101.5594 86° East 453 521 27,000  Level Albuquerque Center
06:59PM 35.1883 -101.4064 86° East 453 521 27,000  Level Albuquerque Center
07:00PM 35.1975 -101.2583 87° East 443 510 27,000  Level Albuquerque Center
07:01PM 35.2044 -101.1103 86° East 443 510 27,000  Level Albuquerque Center
07:02PM 35.2131 -100.9597 85° East 443 510 27,000  Level Albuquerque Center
07:03PM 35.2236 -100.8061 87° East 443 510 27,000  Level Albuquerque Center
07:04PM 35.2294 -100.6861 87° East 443 510 27,000  Level Albuquerque Center
07:06PM 35.2444 -100.3519 87° East 453 521 27,000  Level Fort Worth Center
07:07PM 35.2497 -100.2047 85° East 441 507 27,000  Level Fort Worth Center
07:08PM 35.2594 -100.0550 88° East 441 507 27,000  Level Fort Worth Center
07:09PM 35.2650 -99.8747 86° East 441 507 27,000  Level Fort Worth Center
07:10PM 35.2742 -99.7300 88° East 441 507 27,000  Level Fort Worth Center
07:11PM 35.2789 -99.5803 87° East 441 507 27,000  Level Fort Worth Center
07:12PM 35.2856 -99.4328 87° East 441 507 27,000  Level Fort Worth Center
07:13PM 35.2922 -99.2803 88° East 441 507 27,000  Level Fort Worth Center
07:14PM 35.2964 -99.1306 88° East 441 507 27,000  Level Fort Worth Center
07:15PM 35.3000 -99.0108 87° East 441 507 27,000  Level Fort Worth Center
07:16PM 35.3086 -98.8281 87° East 441 507 27,000  Level Fort Worth Center
07:17PM 35.3144 -98.6756 87° East 441 507 27,100 900 Climbing Fort Worth Center
07:18PM 35.3200 -98.5228 88° East 441 507 28,900 900 Climbing Fort Worth Center
07:19PM 35.3231 -98.3931 88° East 436 502 29,000 300 Climbing Fort Worth Center
07:20PM 35.3283 -98.2328 88° East 443 510 29,600 1,020 Climbing Fort Worth Center
07:21PM 35.3336 -98.0675 88° East 464 534 31,100 1,560 Climbing Fort Worth Center
07:22PM 35.3386 -97.9047 88° East 471 542 32,800 1,500 Climbing Fort Worth Center
07:23PM 35.3433 -97.7267 89° East 477 549 34,200 1,320 Climbing Fort Worth Center
07:24PM 35.3456 -97.5636 87° East 477 549 35,500 1,440 Climbing Fort Worth Center
07:25PM 35.3519 -97.3933 88° East 484 557 37,100 1,320 Climbing Fort Worth Center
07:26PM 35.3561 -97.2303 89° East 484 557 38,200 900 Climbing Fort Worth Center
07:27PM 35.3578 -97.0775 89° East 490 564 38,900 360 Climbing Fort Worth Center
07:28PM 35.3594 -96.9172 88° East 483 556 39,000  Climbing Fort Worth Center
07:29PM 35.3647 -96.7364 89° East 476 548 39,000  Level Fort Worth Center
07:30PM 35.3681 -96.5708 90° East 476 548 39,000  Level Fort Worth Center
07:31PM 35.3689 -96.4106 92° East 476 548 39,000  Level Fort Worth Center
07:32PM 35.3633 -96.2450 92° East 476 548 39,000  Level Fort Worth Center
07:33PM 35.3575 -96.0822 93° East 476 548 39,000  Level Fort Worth Center
07:34PM 35.3514 -95.9169 92° East 476 548 39,000  Level Fort Worth Center
07:37PM 35.3397 -95.5417 92° East 476 548 39,000  Level Memphis Center
07:38PM 35.3339 -95.3761 92° East 481 554 39,000  Level Memphis Center
07:39PM 35.3281 -95.2103 93° East 481 554 39,000  Level Memphis Center
07:40PM 35.3200 -95.0419 93° East 487 560 39,000  Level Memphis Center
07:41PM 35.3136 -94.8761 93° East 487 560 39,000  Level Memphis Center
07:42PM 35.3072 -94.7028 93° East 487 560 39,000  Level Memphis Center
07:43PM 35.2989 -94.5167 92° East 503 579 39,000  Level Memphis Center
07:44PM 35.2939 -94.3483 95° East 498 573 39,000  Level Memphis Center
07:45PM 35.2825 -94.1800 92° East 498 573 39,000  Level Memphis Center
07:46PM 35.2772 -94.0119 93° East 498 573 39,000  Level Memphis Center
07:47PM 35.2697 -93.8386 93° East 498 573 39,000  Level Memphis Center
07:48PM 35.2617 -93.6756 94° East 498 573 39,000  Level Memphis Center
07:49PM 35.2514 -93.5075 93° East 498 573 39,000  Level Memphis Center
07:50PM 35.2447 -93.3494 94° East 486 559 39,000  Level Memphis Center
07:51PM 35.2361 -93.1814 94° East 481 554 39,000  Level Memphis Center
07:52PM 35.2253 -93.0133 94° East 481 554 39,000  Level Memphis Center
07:53PM 35.2164 -92.8453 95° East 481 554 39,000  Level Memphis Center
07:54PM 35.2047 -92.6925 94° East 491 565 39,000  Level Memphis Center
07:55PM 35.1950 -92.5244 95° East 496 571 39,000  Level Memphis Center
07:56PM 35.1833 -92.3617 94° East 496 571 39,000  Level Memphis Center
07:57PM 35.1733 -92.1961 93° East 496 571 39,000  Level Memphis Center
07:58PM 35.1653 -92.0283 95° East 490 564 39,000  Level Memphis Center
07:59PM 35.1528 -91.8581 96° East 495 570 39,000  Level Memphis Center
08:00PM 35.1381 -91.6903 93° East 500 575 39,000  Level Memphis Center
08:01PM 35.1292 -91.5147 93° East 500 575 39,000  Level Memphis Center
08:02PM 35.1225 -91.3497 95° East 495 570 39,000  Level Memphis Center
08:03PM 35.1089 -91.1769 96° East 501 577 39,000  Level Memphis Center
08:04PM 35.0933 -90.9942 94° East 501 577 39,000  Level Memphis Center
08:05PM 35.0836 -90.8267 96° East 496 571 39,000  Level Memphis Center
08:06PM 35.0694 -90.6617 94° East 496 571 39,000  Level Memphis Center
08:07PM 35.0594 -90.4992 96° East 489 563 39,000  Level Memphis Center
08:08PM 35.0450 -90.3367 95° East 479 551 39,000  Level Memphis Center
08:09PM 35.0344 -90.1769 96° East 479 551 39,000  Level Memphis Center
08:10PM 35.0214 -90.0197 98° East 479 551 39,000  Level Memphis Center
08:11PM 35.0044 -89.8753 101° East 474 545 39,000  Level Memphis Center
08:12PM 34.9786 -89.7133 100° East 483 556 39,000  Level Memphis Center
08:14PM 34.9283 -89.3819 101° East 477 549 39,000  Level Memphis Center
08:15PM 34.9042 -89.2253 101° East 472 543 39,000  Level Memphis Center
08:16PM 34.8794 -89.0661 101° East 467 537 39,000 -120 Level Memphis Center
08:17PM 34.8550 -88.9119 100° East 467 537 38,800 -600 Descending Memphis Center
08:18PM 34.8322 -88.7556 101° East 467 537 37,800 -1,020 Descending Memphis Center
08:19PM 34.8069 -88.5992 102° East 467 537 36,800 -900 Descending Memphis Center
08:20PM 34.7842 -88.4683 100° East 467 537 36,000 -900 Descending Memphis Center
08:21PM 34.7608 -88.3119 102° East 461 531 35,000 -960 Descending Memphis Center
08:22PM 34.7331 -88.1483 100° East 475 547 34,100 -960 Descending Memphis Center
08:23PM 34.7092 -87.9900 101° East 486 559 33,100 -600 Descending Memphis Center
08:24PM 34.6833 -87.8342 101° East 481 554 33,000 -60 Descending Memphis Center
08:25PM 34.6569 -87.6758 102° East 481 554 33,000  Level Memphis Center
08:26PM 34.6261 -87.5053 101° East 475 547 33,000  Level Memphis Center
08:27PM 34.5912 -87.2908 103° East 481 554 33,000  Level FlightAware ADS-B
08:28PM 34.5737 -87.1997 103° East 481 554 33,000  Level FlightAware ADS-B
08:28PM 34.5541 -87.0962 103° East 482 555 33,000  Level FlightAware ADS-B
08:29PM 34.5258 -86.9483 108° East 483 556 33,000  Level Atlanta Center
08:30PM 34.4836 -86.7906 108° East 483 556 33,000  Level Atlanta Center
08:31PM 34.4378 -86.6171 108° East 489 563 33,000  Level FlightAware ADS-B
08:32PM 34.4160 -86.5349 108° East 490 564 33,000  Level FlightAware ADS-B
08:32PM 34.3944 -86.4540 108° East 489 563 33,000  Level FlightAware ADS-B
08:33PM 34.3729 -86.3735 108° East 490 564 33,000  Level FlightAware ADS-B
08:33PM 34.3516 -86.2942 108° East 489 563 33,000  Level FlightAware ADS-B
08:34PM 34.3282 -86.2073 108° East 489 563 33,000  Level FlightAware ADS-B
08:35PM 34.2861 -86.0517 108° East 489 563 33,000 -1,380 Level FlightAware ADS-B
08:36PM 34.2579 -85.9472 108° East 493 567 30,700 -3,540 Descending FlightAware ADS-B
08:36PM 34.2363 -85.8671 108° East 496 571 28,900 -3,180 Descending FlightAware ADS-B
08:37PM 34.2147 -85.7883 108° East 482 555 27,500 -3,000 Descending FlightAware ADS-B
08:37PM 34.1873 -85.6881 108° East 472 543 25,400 -3,120 Descending FlightAware ADS-B
08:38PM 34.1673 -85.6156 109° East 453 521 23,900 -3,180 Descending FlightAware ADS-B
08:38PM 34.1469 -85.5426 109° East 450 518 22,200 -3,000 Descending FlightAware ADS-B
08:39PM 34.1255 -85.4680 111° Southeast 443 510 20,800 -2,580 Descending FlightAware ADS-B
08:40PM 34.0833 -85.3333 105° East 436 502 18,400 -2,460 Descending Atlanta TRACON
08:41PM 34.0500 -85.1833 109° East 424 488 15,700 -2,100 Descending Atlanta TRACON
08:42PM 34.0167 -85.0667 107° East 407 468 14,000 -1,320 Descending Atlanta TRACON
08:43PM 33.9833 -84.9333 117° Southeast 395 455 13,100 -900 Descending Atlanta TRACON
08:44PM 33.9333 -84.8167 140° Southeast 388 447 12,300 -600 Descending Atlanta TRACON
08:45PM 33.8500 -84.7333 129° Southeast 381 438 12,000 -180 Descending Atlanta TRACON
08:46PM 33.7833 -84.6333 126° Southeast 365 420 12,000 -120 Level Atlanta TRACON
08:47PM 33.7333 -84.5500 90° East 298 343 11,800 -900 Descending Atlanta TRACON
08:48PM 33.7333 -84.4667 90° East 275 316 10,200 -1,800 Descending Atlanta TRACON
08:49PM 33.7333 -84.3667 90° East 254 292 8,300 -1,680 Descending Atlanta TRACON
08:50PM 33.7333 -84.3000 90° East 232 267 6,900 -1,320 Descending Atlanta TRACON
08:51PM 33.7333 -84.2167 180° South 212 244 5,700 -1,200 Descending Atlanta TRACON
08:52PM 33.6833 -84.2167 231° Southwest 208 239 4,700 -1,200 Descending Atlanta TRACON
08:53PM 33.6500 -84.2667 270° West 182 209 3,300 -1,200 Descending Atlanta TRACON
08:54PM 33.6500 -84.3333 270° West 168 193 2,300 -900 Descending Atlanta TRACON
08:55PM 33.6500 -84.3667 248° West 136 157 1,600 -720 Descending Atlanta TRACON
09:02PM 33.6333 -84.4167 248° West  Level FlightAware Approximate